Time;durP1;ratioP1;P1;durP2;ratioP2;P2;SDS_P1;SDS_P2;PMS_P1;PMS_P2;Temp;Humidity;BMP_temperature;BMP_pressure;BME280_temperature;BME280_humidity;BME280_pressure;Samples;Min_cycle;Max_cycle;Signal;HPM_P1;HPM_P2
2021/06/24 00:02:15;;;;;;;30.35;26.85;;;;;;;22.57;75.05;98994.46;124757;1093;64364;-79
2021/06/24 00:04:42;;;;;;;31.70;26.30;;;;;;;22.52;75.12;99007.73;124826;1093;64344;-79
2021/06/24 00:07:09;;;;;;;29.03;25.53;;;;;;;22.45;75.00;99025.75;124813;1093;64307;-78
2021/06/24 00:09:37;;;;;;;27.83;25.23;;;;;;;22.39;75.23;99024.60;124820;1093;64287;-78
2021/06/24 00:12:05;;;;;;;29.57;25.90;;;;;;;22.33;75.76;99023.45;124731;1093;64269;-78
2021/06/24 00:14:32;;;;;;;29.87;26.50;;;;;;;22.28;76.22;99025.01;124729;1092;64332;-78
2021/06/24 00:17:00;;;;;;;31.27;27.37;;;;;;;22.23;75.95;99019.26;124826;1093;64495;-78
2021/06/24 00:19:52;;;;;;;31.07;27.20;;;;;;;22.19;76.12;99016.03;124789;1093;64316;-79
2021/06/24 00:22:20;;;;;;;32.93;26.17;;;;;;;22.13;76.17;99006.70;124793;1093;64191;-79
2021/06/24 00:24:47;;;;;;;30.70;26.50;;;;;;;22.09;76.39;98996.36;124817;1093;64248;-77
2021/06/24 00:27:14;;;;;;;30.30;25.15;;;;;;;22.06;76.46;99004.86;124818;1093;64309;-77
2021/06/24 00:29:41;;;;;;;31.30;27.10;;;;;;;22.02;76.00;99012.52;124805;1093;64284;-78
2021/06/24 00:32:09;;;;;;;30.10;25.55;;;;;;;22.02;76.56;99019.83;124769;1093;64645;-78
2021/06/24 00:34:36;;;;;;;31.80;26.50;;;;;;;21.99;76.18;98996.59;124785;1092;64300;-78
2021/06/24 00:37:04;;;;;;;30.67;26.17;;;;;;;21.99;76.39;98995.75;124659;1093;64242;-78
2021/06/24 00:39:31;;;;;;;30.20;26.17;;;;;;;21.97;76.65;99000.50;124843;1093;64191;-78
2021/06/24 00:42:00;;;;;;;30.37;27.07;;;;;;;21.95;76.49;98997.11;124794;1092;64371;-78
2021/06/24 00:44:27;;;;;;;30.33;27.13;;;;;;;21.91;76.92;98992.05;124809;1093;64271;-79
2021/06/24 00:46:55;;;;;;;31.57;28.23;;;;;;;21.88;77.02;98980.67;124781;1093;64218;-77
2021/06/24 00:49:22;;;;;;;31.57;28.20;;;;;;;21.83;77.25;98988.52;124755;1093;64275;-78
2021/06/24 00:51:49;;;;;;;31.40;27.07;;;;;;;21.79;77.46;98981.74;124788;1093;64283;-78
2021/06/24 00:54:16;;;;;;;28.63;25.53;;;;;;;21.75;77.48;98988.52;124794;1093;64319;-79
2021/06/24 00:56:43;;;;;;;31.10;28.00;;;;;;;21.70;77.75;98979.06;124782;1093;64287;-79
2021/06/24 00:59:10;;;;;;;31.67;28.33;;;;;;;21.67;77.90;98973.98;124781;1093;64248;-78
2021/06/24 01:01:38;;;;;;;28.33;25.27;;;;;;;21.64;78.18;98974.34;124801;1093;64217;-78
2021/06/24 01:04:05;;;;;;;30.80;25.90;;;;;;;21.62;78.27;98978.25;124655;1092;64404;-80
2021/06/24 01:06:33;;;;;;;31.20;27.15;;;;;;;21.59;78.43;98965.01;124713;1092;64329;-77
2021/06/24 01:09:29;;;;;;;28.43;25.63;;;;;;;21.60;78.77;98958.59;124651;1093;64354;-78
2021/06/24 01:11:57;;;;;;;31.10;26.30;;;;;;;21.56;79.15;98951.80;124664;1092;64281;-78
2021/06/24 01:14:24;;;;;;;29.35;25.60;;;;;;;21.53;79.15;98952.16;124822;1093;64283;-78
2021/06/24 01:16:52;;;;;;;28.23;25.37;;;;;;;21.52;78.89;98962.16;124808;1093;64296;-78
2021/06/24 01:19:20;;;;;;;28.60;25.37;;;;;;;21.51;79.27;98959.61;124813;1092;64504;-78
2021/06/24 01:21:49;;;;;;;27.47;24.47;;;;;;;21.48;78.97;98958.09;124793;1093;64287;-78
2021/06/24 01:24:18;;;;;;;32.00;24.60;;;;;;;21.48;79.28;98960.80;124772;1093;64268;-79
2021/06/24 01:26:47;;;;;;;28.83;25.63;;;;;;;21.46;79.53;98971.00;124836;1093;64268;-79
2021/06/24 01:29:16;;;;;;;27.37;23.77;;;;;;;21.44;79.26;98957.61;124667;1093;64762;-78
2021/06/24 02:49:45;;;;;;;28.90;25.80;;;;;;;21.17;81.31;98903.74;124920;1093;64287;-83
2021/06/24 02:52:13;;;;;;;31.87;27.27;;;;;;;21.20;81.29;98896.13;124845;1093;64239;-83
2021/06/24 02:54:40;;;;;;;29.40;26.50;;;;;;;21.22;81.37;98902.23;124908;1091;64315;-84
2021/06/24 02:57:07;;;;;;;30.60;27.33;;;;;;;21.24;81.04;98910.17;124871;1093;64312;-82
2021/06/24 02:59:35;;;;;;;31.57;26.93;;;;;;;21.25;81.02;98906.46;124829;1093;64194;-83
2021/06/24 03:02:03;;;;;;;30.20;27.00;;;;;;;21.28;81.13;98911.53;124634;1093;64450;-84
2021/06/24 03:04:30;;;;;;;30.23;26.97;;;;;;;21.35;81.07;98917.09;124839;1093;64294;-83
2021/06/24 03:06:58;;;;;;;31.13;27.63;;;;;;;21.38;81.14;98898.66;124934;1092;64313;-84
2021/06/24 03:09:25;;;;;;;30.85;27.60;;;;;;;21.42;81.13;98908.13;124871;1093;64380;-83
2021/06/24 03:11:52;;;;;;;31.65;28.30;;;;;;;21.47;80.80;98908.45;124770;1093;64273;-85
2021/06/24 03:14:21;;;;;;;31.63;27.73;;;;;;;21.50;80.94;98904.53;124852;1093;64425;-84
2021/06/24 03:16:48;;;;;;;33.10;28.23;;;;;;;21.52;80.63;98905.22;124891;1093;64245;-83
2021/06/24 03:19:16;;;;;;;30.03;26.83;;;;;;;21.55;80.85;98909.45;124901;1093;64307;-84
2021/06/24 03:21:45;;;;;;;32.20;27.50;;;;;;;21.58;80.76;98903.66;124897;1093;64217;-82
2021/06/24 03:24:12;;;;;;;32.43;28.97;;;;;;;21.60;80.74;98907.89;124887;1093;64194;-83
2021/06/24 03:26:40;;;;;;;30.77;27.67;;;;;;;21.64;80.69;98906.53;124865;1093;64797;-84
2021/06/24 03:29:07;;;;;;;29.77;26.90;;;;;;;21.67;80.57;98897.20;124866;1093;64290;-84
2021/06/24 03:31:35;;;;;;;30.53;27.13;;;;;;;21.77;80.41;98900.52;124963;1093;64280;-83
2021/06/24 03:34:02;;;;;;;31.10;26.83;;;;;;;21.86;80.30;98904.90;124812;1093;64220;-84
2021/06/24 03:36:30;;;;;;;33.37;28.57;;;;;;;22.01;80.05;98893.28;124855;1093;64335;-83
2021/06/24 03:38:57;;;;;;;37.80;28.60;;;;;;;22.17;79.58;98893.20;124898;1093;64232;-83
2021/06/24 03:41:25;;;;;;;31.27;27.97;;;;;;;22.33;79.47;98890.41;124874;1093;64248;-84
2021/06/24 03:43:55;;;;;;;28.60;25.73;;;;;;;22.54;79.08;98894.33;124906;1093;64287;-83
2021/06/24 03:46:23;;;;;;;29.63;26.67;;;;;;;22.72;78.66;98892.14;124910;1093;64275;-84
2021/06/24 03:48:52;;;;;;;33.00;29.60;;;;;;;22.85;78.17;98893.37;124856;1093;64305;-85
2021/06/24 03:51:19;;;;;;;35.07;31.50;;;;;;;22.85;78.00;98894.20;124890;1093;64396;-83
2021/06/24 03:53:47;;;;;;;30.73;27.80;;;;;;;22.86;78.05;98895.08;124907;1093;64214;-84
2021/06/24 03:56:14;;;;;;;28.30;25.40;;;;;;;22.99;77.84;98900.75;124872;1093;64270;-83
2021/06/24 03:58:42;;;;;;;28.13;25.17;;;;;;;23.21;77.09;98898.99;124909;1093;64245;-83
2021/06/24 04:01:10;;;;;;;29.97;27.10;;;;;;;23.49;76.57;98906.52;124824;1093;64399;-83
2021/06/24 04:03:37;;;;;;;27.93;25.23;;;;;;;23.75;75.51;98912.35;124870;1093;64315;-82
2021/06/24 04:06:06;;;;;;;29.43;26.53;;;;;;;24.01;75.16;98908.25;124860;1092;64212;-83
2021/06/24 04:08:34;;;;;;;27.13;24.53;;;;;;;24.24;74.59;98906.22;124932;1093;64287;-83
2021/06/24 04:11:03;;;;;;;29.83;26.70;;;;;;;24.45;73.82;98897.25;124885;1093;64290;-84
2021/06/24 04:13:30;;;;;;;31.50;28.20;;;;;;;24.68;73.38;98899.78;124889;1092;64648;-83
2021/06/24 04:15:58;;;;;;;28.97;26.30;;;;;;;24.89;72.66;98907.09;124833;1093;64389;-83
2021/06/24 04:18:25;;;;;;;29.07;26.27;;;;;;;25.11;72.10;98904.31;124913;1093;64188;-83
2021/06/24 04:20:53;;;;;;;27.90;25.23;;;;;;;25.45;72.00;98908.98;124894;1093;64236;-83
2021/06/24 04:23:20;;;;;;;31.50;28.17;;;;;;;25.70;70.96;98898.43;124822;1093;64302;-86
2021/06/24 04:25:47;;;;;;;30.23;27.43;;;;;;;25.93;70.68;98905.47;124900;1093;64412;-83
2021/06/24 04:28:15;;;;;;;30.30;27.37;;;;;;;25.57;70.41;98898.36;124905;1093;64442;-83
2021/06/24 04:30:42;;;;;;;30.50;27.50;;;;;;;25.28;70.84;98902.18;124910;1093;64191;-83
2021/06/24 04:33:10;;;;;;;29.33;26.33;;;;;;;25.22;70.79;98906.52;124888;1093;64271;-83
2021/06/24 04:35:38;;;;;;;30.50;27.30;;;;;;;25.46;70.18;98905.23;124924;1093;64291;-84
2021/06/24 04:38:05;;;;;;;29.80;26.75;;;;;;;25.85;69.37;98903.76;124990;1093;64316;-83
2021/06/24 04:40:32;;;;;;;29.80;26.97;;;;;;;26.30;68.47;98903.28;124945;1093;64306;-82
2021/06/24 04:43:00;;;;;;;29.77;26.80;;;;;;;26.61;67.77;98894.55;124934;1093;64275;-83
2021/06/24 04:45:27;;;;;;;29.83;26.80;;;;;;;26.95;66.94;98895.41;124924;1093;64252;-88
2021/06/24 04:47:54;;;;;;;30.03;27.43;;;;;;;27.27;66.52;98907.40;125062;1093;64248;-85
2021/06/24 04:50:22;;;;;;;29.80;27.10;;;;;;;27.58;65.84;98902.06;125009;1093;64294;-83
2021/06/24 04:52:49;;;;;;;28.97;26.10;;;;;;;27.92;65.33;98907.47;125074;1093;64372;-83
2021/06/24 04:55:17;;;;;;;31.93;28.67;;;;;;;28.24;64.41;98903.72;124924;1093;64188;-84
2021/06/24 04:57:44;;;;;;;31.17;28.37;;;;;;;28.55;62.85;98904.84;124965;1093;64287;-83
2021/06/24 05:00:13;;;;;;;32.37;29.10;;;;;;;28.80;62.29;98913.08;125009;1093;64371;-83
2021/06/24 05:02:40;;;;;;;29.28;26.60;;;;;;;29.21;62.00;98910.89;124933;1092;64271;-83
2021/06/24 05:05:08;;;;;;;31.03;28.27;;;;;;;29.72;61.59;98916.06;124769;1093;64277;-83
2021/06/24 05:07:36;;;;;;;31.70;28.80;;;;;;;30.15;59.86;98915.14;124913;1093;64297;-83
2021/06/24 05:10:07;;;;;;;32.40;29.23;;;;;;;30.35;59.25;98920.38;124975;1093;64188;-83
2021/06/24 05:12:36;;;;;;;29.45;26.75;;;;;;;30.58;58.61;98924.30;124776;1093;64271;-83
2021/06/24 05:15:04;;;;;;;31.50;28.80;;;;;;;30.79;57.95;98928.42;124934;1093;64367;-84
2021/06/24 05:17:31;;;;;;;29.23;26.80;;;;;;;31.04;57.69;98919.98;124894;1093;64332;-84
2021/06/24 05:19:59;;;;;;;29.60;26.95;;;;;;;31.17;57.05;98924.44;124870;1093;64229;-84
2021/06/24 05:22:27;;;;;;;30.73;27.93;;;;;;;30.98;57.56;98930.03;124824;1093;64470;-84
2021/06/24 05:24:54;;;;;;;31.10;28.43;;;;;;;31.27;56.60;98921.92;124897;1093;64275;-84
2021/06/24 05:27:22;;;;;;;28.97;26.37;;;;;;;31.53;56.17;98926.14;124825;1092;64192;-85
2021/06/24 05:29:49;;;;;;;30.63;27.93;;;;;;;31.73;55.60;98924.91;124878;1093;64223;-85
2021/06/24 05:32:16;;;;;;;29.77;27.20;;;;;;;31.88;54.94;98930.77;124893;1093;64340;-84
2021/06/24 05:34:44;;;;;;;29.07;26.27;;;;;;;31.96;54.80;98935.09;124895;1093;64287;-84
2021/06/24 05:37:12;;;;;;;29.55;26.90;;;;;;;32.07;54.47;98937.84;124861;1093;64248;-84
2021/06/24 05:39:39;;;;;;;28.63;26.13;;;;;;;32.15;54.14;98931.11;124879;1093;64300;-83
2021/06/24 05:42:07;;;;;;;30.50;27.87;;;;;;;32.20;53.44;98935.86;124858;1093;64443;-83
2021/06/24 05:44:34;;;;;;;30.87;28.17;;;;;;;32.24;53.67;98924.10;124879;1092;64248;-83
2021/06/24 05:47:01;;;;;;;28.23;25.63;;;;;;;32.47;53.36;98933.38;124909;1093;64229;-83
2021/06/24 05:49:29;;;;;;;29.70;27.10;;;;;;;32.49;53.09;98940.36;124950;1092;64284;-82
2021/06/24 05:51:56;;;;;;;31.17;28.37;;;;;;;32.47;52.57;98938.89;124738;1093;64286;-82
2021/06/24 05:54:23;;;;;;;29.60;26.90;;;;;;;32.54;51.72;98942.34;124738;1093;64260;-83
2021/06/24 05:56:51;;;;;;;30.23;27.57;;;;;;;32.50;52.37;98952.22;124760;1093;64281;-85
2021/06/24 05:59:19;;;;;;;31.20;28.50;;;;;;;32.60;52.29;98940.52;124873;1093;64230;-83
2021/06/24 06:01:51;;;;;;;31.40;28.60;;;;;;;32.55;51.85;98947.63;124941;1092;64186;-85
2021/06/24 06:04:19;;;;;;;31.37;28.57;;;;;;;32.04;51.16;98942.98;124885;1093;64337;-88
2021/06/24 06:06:48;;;;;;;30.47;27.77;;;;;;;31.52;52.09;98943.77;124791;1093;64434;-84
2021/06/24 06:09:15;;;;;;;;;;;;;;;31.21;52.64;98947.67;124755;1091;64354;-83
2021/06/24 06:11:45;;;;;;;32.67;29.63;;;;;;;30.89;53.21;98949.91;124914;1093;64200;-84
2021/06/24 06:14:12;;;;;;;33.20;30.33;;;;;;;30.81;53.38;98954.66;124704;1093;64271;-84
2021/06/24 06:16:44;;;;;;;35.10;32.10;;;;;;;30.88;53.36;98951.79;124900;1093;64255;-84
2021/06/24 06:19:13;;;;;;;31.57;28.67;;;;;;;30.68;53.61;98949.33;124932;1093;64290;-82
2021/06/24 06:21:40;;;;;;;38.13;34.27;;;;;;;30.69;53.96;98945.49;124912;1093;64284;-84
2021/06/24 06:24:08;;;;;;;35.17;31.63;;;;;;;30.54;54.13;98942.33;124893;1093;64307;-83
2021/06/24 06:26:36;;;;;;;52.97;35.67;;;;;;;30.10;54.58;98953.47;124881;1093;64298;-82
2021/06/24 06:29:04;;;;;;;36.43;33.17;;;;;;;29.72;55.69;98960.02;124833;1093;64271;-83
2021/06/24 06:31:35;;;;;;;35.23;31.80;;;;;;;29.20;56.06;98956.72;124901;1093;64427;-82
2021/06/24 06:34:03;;;;;;;35.43;31.93;;;;;;;28.78;56.37;98956.38;124828;1093;64278;-82
2021/06/24 06:36:30;;;;;;;34.75;31.40;;;;;;;28.63;57.30;98940.22;124867;1093;64262;-83
2021/06/24 06:38:57;;;;;;;36.57;33.03;;;;;;;28.49;57.14;98952.34;124886;1092;64380;-86
2021/06/24 06:41:25;;;;;;;36.07;32.93;;;;;;;28.15;58.25;98937.09;124850;1093;64278;-82
2021/06/24 06:43:52;;;;;;;37.63;33.93;;;;;;;27.92;57.90;98927.48;124916;1093;64244;-82
2021/06/24 06:46:19;;;;;;;36.93;33.07;;;;;;;27.84;58.22;98921.41;124844;1092;64287;-84
2021/06/24 06:48:47;;;;;;;37.80;34.33;;;;;;;27.95;58.78;98924.30;124870;1093;64217;-84
2021/06/24 06:51:15;;;;;;;37.57;33.90;;;;;;;28.02;58.99;98927.03;124847;1093;64269;-84
2021/06/24 06:53:42;;;;;;;39.63;35.60;;;;;;;27.99;59.53;98928.30;124817;1093;64213;-81
2021/06/24 07:23:10;;;;;;;40.27;36.20;;;;;;;28.65;60.20;98929.88;125263;1092;64297;-84
2021/06/24 07:25:37;;;;;;;39.33;35.77;;;;;;;29.00;59.30;98925.81;125108;1093;64306;-85
2021/06/24 07:28:04;;;;;;;40.87;36.93;;;;;;;29.16;59.30;98921.70;125098;1093;64289;-84
2021/06/24 07:30:32;;;;;;;40.53;36.63;;;;;;;29.47;59.18;98910.63;125177;1093;64353;-84
2021/06/24 07:32:59;;;;;;;39.65;35.90;;;;;;;29.69;58.67;98910.20;125297;1093;64232;-84
2021/06/24 07:35:26;;;;;;;39.87;36.07;;;;;;;29.91;57.87;98910.56;125465;1093;64359;-84
2021/06/24 07:37:54;;;;;;;38.57;35.10;;;;;;;29.90;57.12;98923.47;125300;1092;64224;-84
2021/06/24 07:40:21;;;;;;;37.20;33.73;;;;;;;29.69;57.46;98922.02;125209;1093;64251;-85
2021/06/24 07:42:50;;;;;;;39.83;36.40;;;;;;;29.77;57.50;98923.63;125291;1093;64345;-83
2021/06/24 07:45:17;;;;;;;41.97;38.07;;;;;;;29.84;57.39;98929.06;125383;1093;64767;-83
2021/06/24 07:47:44;;;;;;;41.47;37.67;;;;;;;30.05;56.93;98928.58;125015;1093;64447;-83
2021/06/24 07:50:12;;;;;;;40.37;36.87;;;;;;;30.28;56.81;98924.28;125133;1092;64211;-84
2021/06/24 07:52:39;;;;;;;45.27;40.93;;;;;;;30.30;56.02;98920.23;125059;1093;64291;-84
2021/06/24 07:55:07;;;;;;;40.27;36.63;;;;;;;30.29;55.82;98917.73;125002;1093;64282;-85
2021/06/24 07:57:35;;;;;;;42.53;38.67;;;;;;;30.19;55.22;98929.24;125123;1093;64185;-84
2021/06/24 08:00:05;;;;;;;43.07;38.93;;;;;;;30.08;55.15;98922.62;125602;1093;64463;-84
2021/06/24 08:02:33;;;;;;;43.87;39.40;;;;;;;30.13;55.52;98927.44;125180;1091;64345;-83
2021/06/24 08:05:00;;;;;;;45.37;41.13;;;;;;;29.92;55.82;98926.00;125418;1093;64284;-84
2021/06/24 08:07:27;;;;;;;45.60;41.37;;;;;;;30.01;55.84;98918.27;125866;1093;64772;-85
2021/06/24 08:09:57;;;;;;;45.43;41.23;;;;;;;30.24;55.93;98920.34;125642;1092;64396;-84
2021/06/24 08:12:24;;;;;;;45.33;41.00;;;;;;;30.84;55.64;98926.67;125473;1092;64187;-83
2021/06/24 08:14:52;;;;;;;47.00;42.70;;;;;;;31.06;54.91;98917.84;125516;1093;64242;-84
2021/06/24 08:17:19;;;;;;;46.67;42.53;;;;;;;31.28;54.82;98907.93;125454;1093;64272;-84
2021/06/24 08:19:46;;;;;;;47.50;43.03;;;;;;;31.35;53.84;98917.98;125502;1093;64296;-84
2021/06/24 08:22:13;;;;;;;47.33;42.90;;;;;;;31.18;53.85;98924.20;125392;1093;64187;-84
2021/06/24 08:24:41;;;;;;;44.63;40.63;;;;;;;31.31;54.60;98908.50;125529;1093;64268;-83
2021/06/24 08:27:08;;;;;;;47.80;43.13;;;;;;;31.59;54.83;98918.83;125272;1093;64338;-84
2021/06/24 08:29:35;;;;;;;46.10;42.07;;;;;;;31.76;54.42;98908.75;125289;1092;64281;-83
2021/06/24 08:32:03;;;;;;;44.37;40.27;;;;;;;31.89;53.71;98908.48;125216;1092;64236;-83
2021/06/24 08:34:30;;;;;;;47.37;42.70;;;;;;;32.12;52.73;98904.86;125129;1093;64339;-84
2021/06/24 08:36:57;;;;;;;42.33;38.63;;;;;;;32.42;53.33;98913.97;125305;1093;64387;-83
2021/06/24 08:39:25;;;;;;;45.27;41.07;;;;;;;32.69;53.09;98920.56;125374;1092;64264;-84
2021/06/24 08:41:52;;;;;;;45.93;41.73;;;;;;;32.83;52.38;98917.48;125412;1093;64661;-84
2021/06/24 08:44:19;;;;;;;41.80;38.13;;;;;;;32.86;51.97;98912.31;125368;1093;64245;-83
2021/06/24 08:46:51;;;;;;;43.70;39.60;;;;;;;32.78;52.37;98919.08;125260;1093;64301;-82
2021/06/24 08:49:25;;;;;;;44.57;40.67;;;;;;;32.86;51.29;98908.69;125344;1093;64242;-83
2021/06/24 08:51:58;;;;;;;43.27;39.47;;;;;;;32.95;51.65;98904.45;125341;1094;64257;-83
2021/06/24 08:54:25;;;;;;;43.00;39.20;;;;;;;32.96;51.34;98903.34;125462;1093;64284;-84
2021/06/24 08:56:53;;;;;;;40.30;36.77;;;;;;;32.92;51.32;98904.95;125400;1093;64303;-83
2021/06/24 08:59:20;;;;;;;44.50;40.45;;;;;;;32.74;50.84;98914.30;125179;1093;64185;-84
2021/06/24 09:01:56;;;;;;;40.27;36.87;;;;;;;32.51;51.35;98912.50;125182;1093;64297;-84
2021/06/24 09:04:25;;;;;;;42.57;38.73;;;;;;;32.45;51.76;98906.02;125199;1093;64279;-84
2021/06/24 09:06:58;;;;;;;41.30;37.87;;;;;;;32.43;51.66;98910.94;125174;1093;64306;-84
2021/06/24 09:09:31;;;;;;;43.20;39.37;;;;;;;32.31;50.83;98902.73;125170;1093;64287;-84
2021/06/24 09:12:05;;;;;;;40.67;36.97;;;;;;;32.14;51.29;98899.08;125112;1093;64404;-84
2021/06/24 09:14:50;;;;;;;39.95;36.45;;;;;;;32.10;51.31;98906.19;125163;1093;64187;-84
2021/06/24 09:17:37;;;;;;;42.23;38.43;;;;;;;32.22;50.85;98900.61;125093;1093;64287;-84
2021/06/24 09:20:27;;;;;;;41.10;37.33;;;;;;;32.28;50.93;98903.23;125152;1093;64273;-85
2021/06/24 09:23:17;;;;;;;42.40;38.50;;;;;;;32.21;51.00;98902.53;125087;1093;64188;-84
2021/06/24 09:26:04;;;;;;;42.67;38.37;;;;;;;32.45;50.21;98897.75;125106;1092;64377;-84
2021/06/24 09:28:40;;;;;;;42.13;38.73;;;;;;;32.43;50.68;98901.84;125036;1093;64412;-86
2021/06/24 09:31:26;;;;;;;42.55;38.90;;;;;;;32.55;50.76;98905.41;125186;1093;64693;-84
2021/06/24 09:33:56;;;;;;;39.87;36.57;;;;;;;32.54;50.21;98906.48;125155;1093;64220;-84
2021/06/24 09:36:33;;;;;;;40.50;36.87;;;;;;;32.46;50.17;98904.09;125214;1093;64267;-82
2021/06/24 09:39:03;;;;;;;47.10;42.17;;;;;;;32.45;50.24;98896.92;125547;1093;64372;-83
2021/06/24 09:41:30;;;;;;;45.13;40.97;;;;;;;32.63;50.58;98902.25;125081;1093;64399;-84
2021/06/24 09:43:58;;;;;;;45.93;41.77;;;;;;;32.83;50.82;98889.88;125097;1092;64214;-88
2021/06/24 09:46:30;;;;;;;46.17;41.97;;;;;;;32.85;50.28;98890.47;125164;1093;64268;-88
2021/06/24 09:49:01;;;;;;;44.43;40.37;;;;;;;32.88;50.32;98889.96;125138;1093;64377;-86
2021/06/24 09:51:32;;;;;;;46.87;42.70;;;;;;;32.85;50.28;98884.95;125150;1092;64320;-87
2021/06/24 09:54:05;;;;;;;42.97;38.70;;;;;;;32.91;50.16;98886.70;125067;1093;64303;-84
2021/06/24 09:56:42;;;;;;;42.70;38.90;;;;;;;33.02;50.54;98885.83;125050;1093;64794;-86
2021/06/24 09:59:11;;;;;;;43.57;39.47;;;;;;;33.04;50.83;98883.63;125094;1093;64271;-86
2021/06/24 10:01:46;;;;;;;;;;;;;;;32.84;50.41;98881.36;125231;1093;64188;-83
2021/06/24 10:04:27;;;;;;;42.37;38.57;;;;;;;32.91;50.07;98878.41;125114;1092;64307;-85
2021/06/24 10:06:57;;;;;;;42.50;38.90;;;;;;;32.72;49.88;98870.38;125131;1093;64150;-84
2021/06/24 10:09:25;;;;;;;43.47;39.23;;;;;;;32.39;50.39;98875.81;125242;1093;64338;-82
2021/06/24 10:11:54;;;;;;;42.23;38.23;;;;;;;32.16;51.10;98863.83;125107;1093;64802;-82
2021/06/24 10:14:22;;;;;;;41.00;36.93;;;;;;;32.08;51.06;98866.98;125150;1093;64220;-82
2021/06/24 10:16:52;;;;;;;41.83;37.97;;;;;;;32.06;52.05;98860.88;125217;1093;64271;-82
2021/06/24 10:19:27;;;;;;;43.03;39.00;;;;;;;32.07;51.96;98866.16;124965;1093;64325;-82
2021/06/24 10:22:04;;;;;;;41.83;37.97;;;;;;;32.11;52.22;98858.22;125088;1093;64216;-81
2021/06/24 10:24:48;;;;;;;43.03;39.03;;;;;;;32.14;51.77;98860.48;125135;1093;64269;-81
2021/06/24 10:27:17;;;;;;;43.37;39.47;;;;;;;32.09;51.85;98852.94;125006;1093;64156;-82
2021/06/24 10:29:51;;;;;;;44.23;39.60;;;;;;;32.18;51.96;98858.91;125212;1093;64242;-83
2021/06/24 10:32:34;;;;;;;44.07;39.90;;;;;;;32.28;51.77;98861.00;125102;1092;64428;-81
2021/06/24 10:35:04;;;;;;;45.27;41.00;;;;;;;32.28;52.01;98852.73;125210;1093;64264;-82
2021/06/24 10:37:33;;;;;;;42.67;38.17;;;;;;;32.25;51.66;98853.23;125217;1093;64316;-83
2021/06/24 10:40:33;;;;;;;40.40;36.38;;;;;;;32.18;52.00;98853.39;125249;1093;64380;-82
2021/06/24 10:43:02;;;;;;;42.40;38.80;;;;;;;32.27;51.77;98849.14;125041;1093;64358;-83
2021/06/24 10:45:30;;;;;;;42.27;38.37;;;;;;;32.25;51.79;98845.78;125191;1093;64248;-82
2021/06/24 10:47:58;;;;;;;40.50;36.93;;;;;;;32.22;52.47;98839.94;125026;1093;64272;-81
2021/06/24 10:50:44;;;;;;;;;;;;;;;;;;;;;
2021/06/24 10:53:11;;;;;;;40.70;37.00;;;;;;;32.41;53.16;98840.55;125171;1093;64217;-81
2021/06/24 10:55:46;;;;;;;41.80;37.90;;;;;;;32.56;53.19;98829.82;125161;1093;64364;-82
2021/06/24 10:58:13;;;;;;;43.23;39.23;;;;;;;32.68;53.10;98838.03;125019;1093;64325;-82
2021/06/24 11:00:50;;;;;;;41.80;37.60;;;;;;;32.82;53.41;98835.77;125201;1093;64188;-83
2021/06/24 11:03:24;;;;;;;41.80;38.00;;;;;;;32.99;52.78;98829.16;125236;1093;64191;-82
2021/06/24 11:05:54;;;;;;;40.73;37.07;;;;;;;33.17;53.10;98830.81;125105;1092;64268;-81
2021/06/24 11:08:30;;;;;;;43.70;39.13;;;;;;;33.28;52.42;98825.43;124988;1093;64381;-82
2021/06/24 11:11:08;;;;;;;42.93;38.80;;;;;;;33.38;52.16;98818.12;125054;1093;64348;-83
2021/06/24 11:13:39;;;;;;;39.88;36.10;;;;;;;33.50;52.59;98811.66;125121;1092;64290;-81
2021/06/24 11:16:19;;;;;;;42.03;38.40;;;;;;;33.61;52.24;98807.95;125158;1092;64187;-81
2021/06/24 11:18:49;;;;;;;40.50;36.80;;;;;;;33.64;51.27;98807.43;125161;1093;64264;-82
2021/06/24 11:21:42;;;;;;;42.43;38.53;;;;;;;33.61;51.55;98808.78;125187;1092;64386;-82
2021/06/24 11:24:18;;;;;;;41.57;37.43;;;;;;;33.66;51.88;98808.02;125146;1093;64459;-82
2021/06/24 11:26:48;;;;;;;41.23;37.23;;;;;;;33.82;51.65;98809.03;125189;1093;64194;-83
2021/06/24 11:29:32;;;;;;;40.13;36.50;;;;;;;34.04;51.87;98808.98;125193;1093;64191;-82
2021/06/24 11:32:16;;;;;;;36.30;32.90;;;;;;;34.14;51.83;98805.53;125124;1092;64267;-82
2021/06/24 11:37:21;;;;;;;37.47;34.40;;;;;;;34.39;51.01;98789.18;125142;1093;64259;-82
2021/06/24 11:39:55;;;;;;;34.07;31.27;;;;;;;34.60;50.74;98797.66;125149;1093;64367;-81
2021/06/24 11:42:29;;;;;;;29.70;27.05;;;;;;;34.66;48.72;98791.92;124974;1093;64309;-82
2021/06/24 11:44:57;;;;;;;30.33;27.10;;;;;;;34.50;48.10;98796.46;125095;1093;64364;-82
2021/06/24 11:47:33;;;;;;;29.33;26.60;;;;;;;34.29;48.08;98784.38;125129;1092;64313;-82
2021/06/24 12:04:04;;;;;;;30.17;27.40;;;;;;;33.34;47.99;98769.18;125150;1093;64267;-82
2021/06/24 12:06:43;;;;;;;30.43;27.33;;;;;;;33.40;48.22;98757.09;125137;1093;64268;-82
2021/06/24 12:09:11;;;;;;;28.00;25.43;;;;;;;33.49;49.19;98758.30;125127;1093;64188;-82
2021/06/24 12:11:40;;;;;;;29.87;27.00;;;;;;;33.68;48.84;98758.84;125143;1093;64242;-83
2021/06/24 12:14:39;;;;;;;28.10;25.45;;;;;;;33.84;49.08;98757.91;125734;1093;64325;-90
2021/06/24 12:17:08;;;;;;;29.20;26.30;;;;;;;34.08;48.84;98755.70;125423;1093;64454;-87
2021/06/24 12:19:57;;;;;;;28.23;25.68;;;;;;;34.33;48.66;98754.24;125523;1093;64242;-92
2021/06/24 12:22:39;;;;;;;29.93;27.10;;;;;;;34.54;48.51;98760.78;125658;1092;63075;-87
2021/06/24 12:25:14;;;;;;;34.13;31.17;;;;;;;34.69;48.36;98749.03;125416;1093;64242;-87
2021/06/24 12:27:43;;;;;;;36.20;32.97;;;;;;;34.78;48.66;98747.41;125456;1093;64309;-84
2021/06/24 12:30:12;;;;;;;37.33;33.73;;;;;;;34.89;48.34;98737.23;125170;1092;64227;-83
2021/06/24 12:32:55;;;;;;;30.37;27.37;;;;;;;34.91;46.28;98732.27;125036;1093;64299;-84
2021/06/24 12:36:00;;;;;;;30.07;26.93;;;;;;;34.65;46.46;98740.44;125090;1093;64191;-83
2021/06/24 12:38:28;;;;;;;27.90;25.43;;;;;;;34.35;45.36;98743.75;125047;1093;64229;-83
2021/06/24 12:41:07;;;;;;;28.67;25.97;;;;;;;34.18;45.87;98731.98;125022;1093;64227;-86
2021/06/24 12:43:36;;;;;;;29.43;26.70;;;;;;;34.14;45.33;98733.62;125142;1093;64367;-82
2021/06/24 12:46:06;;;;;;;29.50;26.60;;;;;;;34.02;46.59;98731.83;125041;1093;64194;-85
2021/06/24 12:48:36;;;;;;;31.53;28.73;;;;;;;34.11;46.17;98734.14;125272;1093;64276;-88
2021/06/24 12:51:22;;;;;;;31.40;28.43;;;;;;;34.17;46.64;98725.61;125215;1092;64291;-84
2021/06/24 12:53:53;;;;;;;31.60;27.97;;;;;;;34.19;46.43;98717.89;125092;1093;64264;-82
2021/06/24 12:56:25;;;;;;;30.70;26.60;;;;;;;34.21;46.13;98715.70;125153;1093;64290;-81
2021/06/24 12:58:53;;;;;;;29.43;26.90;;;;;;;34.38;47.47;98709.19;125228;1093;64306;-81
2021/06/24 13:01:22;;;;;;;29.50;26.50;;;;;;;34.46;46.89;98705.92;125241;1092;64364;-81
2021/06/24 13:03:54;;;;;;;28.03;25.17;;;;;;;34.45;46.87;98707.87;125195;1093;64239;-81
2021/06/24 13:06:29;;;;;;;28.90;26.10;;;;;;;34.41;46.54;98706.72;125091;1092;64126;-80
2021/06/24 13:08:57;;;;;;;27.80;25.10;;;;;;;34.41;46.59;98701.18;125115;1093;64184;-80
2021/06/24 13:11:46;;;;;;;28.80;25.93;;;;;;;34.52;47.23;98693.78;125158;1092;64251;-81
2021/06/24 13:14:18;;;;;;;27.30;24.90;;;;;;;34.72;47.26;98693.13;125135;1093;64168;-79
2021/06/24 13:16:49;;;;;;;29.27;26.40;;;;;;;34.76;47.28;98685.97;125102;1093;64366;-80
2021/06/24 13:19:22;;;;;;;29.70;26.70;;;;;;;34.89;46.75;98692.92;124998;1093;64245;-79
2021/06/24 13:21:56;;;;;;;29.50;26.90;;;;;;;35.09;46.67;98692.23;125107;1093;64281;-80
2021/06/24 13:24:26;;;;;;;32.80;29.45;;;;;;;35.22;47.12;98685.37;124914;1093;64181;-80
2021/06/24 13:27:05;;;;;;;32.67;29.60;;;;;;;35.32;46.23;98679.86;125018;1093;64264;-81
2021/06/24 13:29:33;;;;;;;32.73;29.33;;;;;;;35.30;46.15;98679.30;125033;1093;64185;-79